sensor_id;sensor_type;location;lat;lon;timestamp;P1;durP1;ratioP1;P2;durP2;ratioP2
71116;SDS011;58775;46.992;9.518;2023-12-14T00:00:52;10.60;;;4.75;;
71116;SDS011;58775;46.992;9.518;2023-12-14T00:02:53;9.63;;;4.63;;
71116;SDS011;58775;46.992;9.518;2023-12-14T00:04:54;8.40;;;3.42;;
71116;SDS011;58775;46.992;9.518;2023-12-14T00:06:55;8.13;;;3.80;;
71116;SDS011;58775;46.992;9.518;2023-12-14T00:08:55;10.40;;;3.88;;
71116;SDS011;58775;46.992;9.518;2023-12-14T00:10:56;9.33;;;4.30;;
71116;SDS011;58775;46.992;9.518;2023-12-14T00:12:57;10.77;;;4.47;;
71116;SDS011;58775;46.992;9.518;2023-12-14T00:14:58;9.83;;;4.43;;
71116;SDS011;58775;46.992;9.518;2023-12-14T00:16:58;10.15;;;4.18;;
71116;SDS011;58775;46.992;9.518;2023-12-14T00:18:59;10.40;;;4.38;;
71116;SDS011;58775;46.992;9.518;2023-12-14T00:21:00;9.33;;;3.83;;
71116;SDS011;58775;46.992;9.518;2023-12-14T00:23:01;11.82;;;4.40;;
71116;SDS011;58775;46.992;9.518;2023-12-14T00:25:01;10.50;;;4.63;;
71116;SDS011;58775;46.992;9.518;2023-12-14T00:27:02;10.07;;;4.28;;
71116;SDS011;58775;46.992;9.518;2023-12-14T00:29:03;9.60;;;4.30;;
71116;SDS011;58775;46.992;9.518;2023-12-14T00:31:04;9.20;;;4.43;;
71116;SDS011;58775;46.992;9.518;2023-12-14T00:33:05;10.23;;;4.07;;
71116;SDS011;58775;46.992;9.518;2023-12-14T00:35:06;8.65;;;3.63;;
71116;SDS011;58775;46.992;9.518;2023-12-14T00:37:08;10.47;;;4.40;;
71116;SDS011;58775;46.992;9.518;2023-12-14T00:39:08;9.25;;;3.88;;
71116;SDS011;58775;46.992;9.518;2023-12-14T00:41:09;10.18;;;4.40;;
71116;SDS011;58775;46.992;9.518;2023-12-14T00:43:10;9.07;;;4.00;;
71116;SDS011;58775;46.992;9.518;2023-12-14T00:45:11;9.23;;;4.05;;
71116;SDS011;58775;46.992;9.518;2023-12-14T00:47:11;8.23;;;3.22;;
71116;SDS011;58775;46.992;9.518;2023-12-14T00:49:12;8.98;;;3.33;;
71116;SDS011;58775;46.992;9.518;2023-12-14T00:51:13;9.15;;;4.10;;
71116;SDS011;58775;46.992;9.518;2023-12-14T00:53:14;9.40;;;4.00;;
71116;SDS011;58775;46.992;9.518;2023-12-14T00:55:15;8.93;;;3.45;;
71116;SDS011;58775;46.992;9.518;2023-12-14T00:57:15;8.40;;;3.77;;
71116;SDS011;58775;46.992;9.518;2023-12-14T00:59:16;7.00;;;3.17;;
71116;SDS011;58775;46.992;9.518;2023-12-14T01:01:17;7.30;;;3.30;;
71116;SDS011;58775;46.992;9.518;2023-12-14T01:03:18;7.57;;;3.40;;
71116;SDS011;58775;46.992;9.518;2023-12-14T01:05:18;8.90;;;2.70;;
71116;SDS011;58775;46.992;9.518;2023-12-14T01:07:19;8.43;;;3.30;;
71116;SDS011;58775;46.992;9.518;2023-12-14T01:09:20;9.50;;;3.67;;
71116;SDS011;58775;46.992;9.518;2023-12-14T01:11:21;9.13;;;4.03;;
71116;SDS011;58775;46.992;9.518;2023-12-14T01:13:21;7.75;;;3.47;;
71116;SDS011;58775;46.992;9.518;2023-12-14T01:15:22;9.87;;;3.77;;
71116;SDS011;58775;46.992;9.518;2023-12-14T01:17:23;9.63;;;4.22;;
71116;SDS011;58775;46.992;9.518;2023-12-14T01:19:23;10.87;;;4.67;;
71116;SDS011;58775;46.992;9.518;2023-12-14T01:21:25;11.13;;;4.78;;
71116;SDS011;58775;46.992;9.518;2023-12-14T01:23:26;10.40;;;5.17;;
71116;SDS011;58775;46.992;9.518;2023-12-14T01:25:27;10.93;;;4.47;;
71116;SDS011;58775;46.992;9.518;2023-12-14T01:27:27;9.30;;;4.23;;
71116;SDS011;58775;46.992;9.518;2023-12-14T01:29:28;10.15;;;4.78;;
71116;SDS011;58775;46.992;9.518;2023-12-14T01:31:29;10.80;;;5.17;;
71116;SDS011;58775;46.992;9.518;2023-12-14T01:33:30;10.18;;;4.90;;
71116;SDS011;58775;46.992;9.518;2023-12-14T01:35:30;12.15;;;4.57;;
71116;SDS011;58775;46.992;9.518;2023-12-14T01:37:31;10.07;;;4.63;;
71116;SDS011;58775;46.992;9.518;2023-12-14T01:39:32;12.10;;;5.40;;
71116;SDS011;58775;46.992;9.518;2023-12-14T01:41:33;12.75;;;4.50;;
71116;SDS011;58775;46.992;9.518;2023-12-14T01:43:34;9.23;;;4.05;;
71116;SDS011;58775;46.992;9.518;2023-12-14T01:45:34;10.27;;;4.20;;
71116;SDS011;58775;46.992;9.518;2023-12-14T01:47:35;11.23;;;4.97;;
71116;SDS011;58775;46.992;9.518;2023-12-14T01:49:36;11.20;;;5.23;;
71116;SDS011;58775;46.992;9.518;2023-12-14T01:51:37;10.45;;;4.43;;
71116;SDS011;58775;46.992;9.518;2023-12-14T01:53:37;11.70;;;5.23;;
71116;SDS011;58775;46.992;9.518;2023-12-14T01:55:38;9.55;;;4.80;;
71116;SDS011;58775;46.992;9.518;2023-12-14T01:57:39;12.27;;;5.00;;
71116;SDS011;58775;46.992;9.518;2023-12-14T01:59:40;11.25;;;5.28;;
71116;SDS011;58775;46.992;9.518;2023-12-14T02:01:47;9.95;;;4.85;;
71116;SDS011;58775;46.992;9.518;2023-12-14T02:03:53;10.52;;;4.95;;
71116;SDS011;58775;46.992;9.518;2023-12-14T02:05:55;11.02;;;4.82;;
71116;SDS011;58775;46.992;9.518;2023-12-14T02:07:58;11.18;;;5.28;;
71116;SDS011;58775;46.992;9.518;2023-12-14T02:09:59;11.85;;;5.70;;
71116;SDS011;58775;46.992;9.518;2023-12-14T02:11:59;11.07;;;5.50;;
71116;SDS011;58775;46.992;9.518;2023-12-14T02:14:03;11.98;;;4.68;;
71116;SDS011;58775;46.992;9.518;2023-12-14T02:16:05;11.63;;;5.13;;
71116;SDS011;58775;46.992;9.518;2023-12-14T02:18:06;12.90;;;5.90;;
71116;SDS011;58775;46.992;9.518;2023-12-14T02:20:07;11.70;;;5.20;;
71116;SDS011;58775;46.992;9.518;2023-12-14T02:22:08;11.88;;;4.93;;
71116;SDS011;58775;46.992;9.518;2023-12-14T02:24:08;9.93;;;4.70;;
71116;SDS011;58775;46.992;9.518;2023-12-14T02:26:09;10.67;;;5.27;;
71116;SDS011;58775;46.992;9.518;2023-12-14T02:28:10;12.23;;;4.57;;
71116;SDS011;58775;46.992;9.518;2023-12-14T02:30:11;11.07;;;5.05;;
71116;SDS011;58775;46.992;9.518;2023-12-14T02:32:13;10.80;;;4.60;;
71116;SDS011;58775;46.992;9.518;2023-12-14T02:34:13;11.63;;;4.95;;
71116;SDS011;58775;46.992;9.518;2023-12-14T02:36:14;12.20;;;6.03;;
71116;SDS011;58775;46.992;9.518;2023-12-14T02:38:15;11.77;;;5.27;;
71116;SDS011;58775;46.992;9.518;2023-12-14T02:40:16;11.48;;;5.07;;
71116;SDS011;58775;46.992;9.518;2023-12-14T02:42:17;13.13;;;5.37;;
71116;SDS011;58775;46.992;9.518;2023-12-14T02:44:18;11.65;;;5.38;;
71116;SDS011;58775;46.992;9.518;2023-12-14T02:46:18;12.52;;;5.47;;
71116;SDS011;58775;46.992;9.518;2023-12-14T02:48:19;9.80;;;4.27;;
71116;SDS011;58775;46.992;9.518;2023-12-14T02:50:20;12.55;;;5.43;;
71116;SDS011;58775;46.992;9.518;2023-12-14T02:52:23;11.97;;;5.03;;
71116;SDS011;58775;46.992;9.518;2023-12-14T02:54:24;13.20;;;5.85;;
71116;SDS011;58775;46.992;9.518;2023-12-14T02:56:25;12.60;;;5.03;;
71116;SDS011;58775;46.992;9.518;2023-12-14T02:58:25;13.83;;;5.80;;
71116;SDS011;58775;46.992;9.518;2023-12-14T03:00:26;11.63;;;5.40;;
71116;SDS011;58775;46.992;9.518;2023-12-14T03:02:27;13.85;;;5.30;;
71116;SDS011;58775;46.992;9.518;2023-12-14T03:04:28;11.45;;;5.18;;
71116;SDS011;58775;46.992;9.518;2023-12-14T03:06:28;12.25;;;5.47;;
71116;SDS011;58775;46.992;9.518;2023-12-14T03:08:29;11.40;;;5.55;;
71116;SDS011;58775;46.992;9.518;2023-12-14T03:10:30;13.23;;;5.57;;
71116;SDS011;58775;46.992;9.518;2023-12-14T03:12:31;12.57;;;5.90;;
71116;SDS011;58775;46.992;9.518;2023-12-14T03:14:32;11.23;;;5.70;;
71116;SDS011;58775;46.992;9.518;2023-12-14T03:16:33;12.40;;;5.13;;
71116;SDS011;58775;46.992;9.518;2023-12-14T03:18:35;11.75;;;4.65;;
71116;SDS011;58775;46.992;9.518;2023-12-14T03:20:36;10.18;;;4.00;;
71116;SDS011;58775;46.992;9.518;2023-12-14T03:22:37;9.60;;;3.60;;
71116;SDS011;58775;46.992;9.518;2023-12-14T03:24:38;9.15;;;3.70;;
71116;SDS011;58775;46.992;9.518;2023-12-14T03:26:39;11.68;;;3.90;;
71116;SDS011;58775;46.992;9.518;2023-12-14T03:28:40;10.83;;;4.27;;
71116;SDS011;58775;46.992;9.518;2023-12-14T03:30:41;10.52;;;4.20;;
71116;SDS011;58775;46.992;9.518;2023-12-14T03:32:42;10.23;;;4.40;;
71116;SDS011;58775;46.992;9.518;2023-12-14T03:34:42;9.98;;;4.93;;
71116;SDS011;58775;46.992;9.518;2023-12-14T03:36:43;12.83;;;5.33;;
71116;SDS011;58775;46.992;9.518;2023-12-14T03:38:44;13.18;;;5.60;;
71116;SDS011;58775;46.992;9.518;2023-12-14T03:40:45;11.73;;;5.30;;
71116;SDS011;58775;46.992;9.518;2023-12-14T03:42:45;11.38;;;4.93;;
71116;SDS011;58775;46.992;9.518;2023-12-14T03:44:46;13.15;;;5.47;;
71116;SDS011;58775;46.992;9.518;2023-12-14T03:46:47;13.17;;;6.03;;
71116;SDS011;58775;46.992;9.518;2023-12-14T03:48:48;11.88;;;5.35;;
71116;SDS011;58775;46.992;9.518;2023-12-14T03:50:48;12.83;;;5.63;;
71116;SDS011;58775;46.992;9.518;2023-12-14T03:52:49;11.82;;;5.30;;
71116;SDS011;58775;46.992;9.518;2023-12-14T03:54:50;16.07;;;5.37;;
71116;SDS011;58775;46.992;9.518;2023-12-14T03:56:51;11.77;;;5.40;;
71116;SDS011;58775;46.992;9.518;2023-12-14T03:58:51;11.80;;;5.47;;
71116;SDS011;58775;46.992;9.518;2023-12-14T04:00:52;12.05;;;5.45;;
71116;SDS011;58775;46.992;9.518;2023-12-14T04:02:53;13.00;;;5.50;;
71116;SDS011;58775;46.992;9.518;2023-12-14T04:04:54;11.02;;;5.68;;
71116;SDS011;58775;46.992;9.518;2023-12-14T04:06:55;13.98;;;5.88;;
71116;SDS011;58775;46.992;9.518;2023-12-14T04:08:56;11.90;;;4.80;;
71116;SDS011;58775;46.992;9.518;2023-12-14T04:10:56;12.63;;;5.50;;
71116;SDS011;58775;46.992;9.518;2023-12-14T04:12:57;8.93;;;4.10;;
71116;SDS011;58775;46.992;9.518;2023-12-14T04:14:58;10.10;;;4.15;;
71116;SDS011;58775;46.992;9.518;2023-12-14T04:16:58;9.23;;;4.00;;
71116;SDS011;58775;46.992;9.518;2023-12-14T04:18:59;8.25;;;3.40;;
71116;SDS011;58775;46.992;9.518;2023-12-14T04:21:00;8.80;;;3.13;;
71116;SDS011;58775;46.992;9.518;2023-12-14T04:23:01;8.10;;;2.60;;
71116;SDS011;58775;46.992;9.518;2023-12-14T04:25:01;5.67;;;1.97;;
71116;SDS011;58775;46.992;9.518;2023-12-14T04:27:02;4.72;;;1.58;;
71116;SDS011;58775;46.992;9.518;2023-12-14T04:29:04;4.95;;;1.80;;
71116;SDS011;58775;46.992;9.518;2023-12-14T04:31:06;6.30;;;1.93;;
71116;SDS011;58775;46.992;9.518;2023-12-14T04:33:07;5.60;;;1.42;;
71116;SDS011;58775;46.992;9.518;2023-12-14T04:35:07;6.70;;;1.60;;
71116;SDS011;58775;46.992;9.518;2023-12-14T04:37:08;5.50;;;1.70;;
71116;SDS011;58775;46.992;9.518;2023-12-14T04:39:09;5.30;;;1.52;;
71116;SDS011;58775;46.992;9.518;2023-12-14T04:41:10;5.47;;;1.83;;
71116;SDS011;58775;46.992;9.518;2023-12-14T04:43:11;7.35;;;2.53;;
71116;SDS011;58775;46.992;9.518;2023-12-14T04:45:12;8.38;;;3.50;;
71116;SDS011;58775;46.992;9.518;2023-12-14T04:47:13;7.83;;;3.00;;
71116;SDS011;58775;46.992;9.518;2023-12-14T04:49:14;8.80;;;3.20;;
71116;SDS011;58775;46.992;9.518;2023-12-14T04:51:15;7.00;;;3.07;;
71116;SDS011;58775;46.992;9.518;2023-12-14T04:53:16;8.30;;;3.45;;
71116;SDS011;58775;46.992;9.518;2023-12-14T04:55:16;8.23;;;3.27;;
71116;SDS011;58775;46.992;9.518;2023-12-14T04:57:17;8.68;;;3.38;;
71116;SDS011;58775;46.992;9.518;2023-12-14T04:59:18;9.27;;;2.83;;
71116;SDS011;58775;46.992;9.518;2023-12-14T05:01:19;7.13;;;2.87;;
71116;SDS011;58775;46.992;9.518;2023-12-14T05:03:20;9.65;;;2.72;;
71116;SDS011;58775;46.992;9.518;2023-12-14T05:05:20;7.60;;;2.47;;
71116;SDS011;58775;46.992;9.518;2023-12-14T05:07:21;5.55;;;2.10;;
71116;SDS011;58775;46.992;9.518;2023-12-14T05:09:24;6.82;;;2.55;;
71116;SDS011;58775;46.992;9.518;2023-12-14T05:11:25;6.07;;;2.30;;
71116;SDS011;58775;46.992;9.518;2023-12-14T05:13:25;6.72;;;2.40;;
71116;SDS011;58775;46.992;9.518;2023-12-14T05:15:26;9.17;;;3.10;;
71116;SDS011;58775;46.992;9.518;2023-12-14T05:17:27;7.82;;;2.80;;
71116;SDS011;58775;46.992;9.518;2023-12-14T05:19:28;7.75;;;2.95;;
71116;SDS011;58775;46.992;9.518;2023-12-14T05:21:28;8.30;;;3.27;;
71116;SDS011;58775;46.992;9.518;2023-12-14T05:23:29;8.98;;;3.03;;
71116;SDS011;58775;46.992;9.518;2023-12-14T05:25:30;7.70;;;2.87;;
71116;SDS011;58775;46.992;9.518;2023-12-14T05:27:31;7.72;;;3.65;;
71116;SDS011;58775;46.992;9.518;2023-12-14T05:29:31;7.73;;;3.23;;
71116;SDS011;58775;46.992;9.518;2023-12-14T05:31:33;10.02;;;3.60;;
71116;SDS011;58775;46.992;9.518;2023-12-14T05:33:37;8.90;;;3.83;;
71116;SDS011;58775;46.992;9.518;2023-12-14T05:35:38;9.25;;;3.63;;
71116;SDS011;58775;46.992;9.518;2023-12-14T05:37:39;8.55;;;3.42;;
71116;SDS011;58775;46.992;9.518;2023-12-14T05:39:43;9.35;;;3.50;;
71116;SDS011;58775;46.992;9.518;2023-12-14T05:41:45;9.33;;;3.40;;
71116;SDS011;58775;46.992;9.518;2023-12-14T05:43:46;6.93;;;2.85;;
71116;SDS011;58775;46.992;9.518;2023-12-14T05:45:47;8.90;;;3.63;;
71116;SDS011;58775;46.992;9.518;2023-12-14T05:47:48;8.73;;;3.57;;
71116;SDS011;58775;46.992;9.518;2023-12-14T05:49:49;7.68;;;2.95;;
71116;SDS011;58775;46.992;9.518;2023-12-14T05:51:50;7.63;;;3.00;;
71116;SDS011;58775;46.992;9.518;2023-12-14T05:53:51;7.77;;;2.93;;
71116;SDS011;58775;46.992;9.518;2023-12-14T05:55:51;7.72;;;3.25;;
71116;SDS011;58775;46.992;9.518;2023-12-14T05:57:52;9.63;;;3.07;;
71116;SDS011;58775;46.992;9.518;2023-12-14T05:59:54;5.68;;;1.98;;
71116;SDS011;58775;46.992;9.518;2023-12-14T06:01:58;5.47;;;2.00;;
71116;SDS011;58775;46.992;9.518;2023-12-14T06:03:59;5.13;;;1.73;;
71116;SDS011;58775;46.992;9.518;2023-12-14T06:06:00;6.82;;;1.67;;
71116;SDS011;58775;46.992;9.518;2023-12-14T06:08:00;5.80;;;1.90;;
71116;SDS011;58775;46.992;9.518;2023-12-14T06:10:01;4.57;;;1.52;;
71116;SDS011;58775;46.992;9.518;2023-12-14T06:12:02;4.90;;;1.48;;
71116;SDS011;58775;46.992;9.518;2023-12-14T06:14:04;4.63;;;0.90;;
71116;SDS011;58775;46.992;9.518;2023-12-14T06:16:05;5.47;;;1.00;;
71116;SDS011;58775;46.992;9.518;2023-12-14T06:18:12;2.45;;;0.80;;
71116;SDS011;58775;46.992;9.518;2023-12-14T06:20:14;3.20;;;0.80;;
71116;SDS011;58775;46.992;9.518;2023-12-14T06:22:14;2.03;;;0.60;;
71116;SDS011;58775;46.992;9.518;2023-12-14T06:24:15;2.95;;;0.70;;
71116;SDS011;58775;46.992;9.518;2023-12-14T06:26:16;3.00;;;0.60;;
71116;SDS011;58775;46.992;9.518;2023-12-14T06:28:17;1.58;;;0.43;;
71116;SDS011;58775;46.992;9.518;2023-12-14T06:30:18;6.55;;;0.80;;
71116;SDS011;58775;46.992;9.518;2023-12-14T06:32:18;2.30;;;0.80;;
71116;SDS011;58775;46.992;9.518;2023-12-14T06:34:20;3.20;;;0.57;;
71116;SDS011;58775;46.992;9.518;2023-12-14T06:36:20;2.05;;;0.73;;
71116;SDS011;58775;46.992;9.518;2023-12-14T06:38:21;2.67;;;0.80;;
71116;SDS011;58775;46.992;9.518;2023-12-14T06:40:23;2.88;;;0.82;;
71116;SDS011;58775;46.992;9.518;2023-12-14T06:42:23;4.15;;;0.77;;
71116;SDS011;58775;46.992;9.518;2023-12-14T06:44:28;4.60;;;1.23;;
71116;SDS011;58775;46.992;9.518;2023-12-14T06:46:30;4.57;;;0.90;;
71116;SDS011;58775;46.992;9.518;2023-12-14T06:48:31;3.40;;;1.00;;
71116;SDS011;58775;46.992;9.518;2023-12-14T06:50:32;3.90;;;1.30;;
71116;SDS011;58775;46.992;9.518;2023-12-14T06:52:33;5.47;;;1.10;;
71116;SDS011;58775;46.992;9.518;2023-12-14T06:54:33;3.30;;;1.13;;
71116;SDS011;58775;46.992;9.518;2023-12-14T06:56:36;3.47;;;1.03;;
71116;SDS011;58775;46.992;9.518;2023-12-14T06:58:38;5.43;;;1.50;;
71116;SDS011;58775;46.992;9.518;2023-12-14T07:00:39;5.13;;;1.63;;
71116;SDS011;58775;46.992;9.518;2023-12-14T07:02:40;3.80;;;1.20;;
71116;SDS011;58775;46.992;9.518;2023-12-14T07:04:42;3.90;;;1.25;;
71116;SDS011;58775;46.992;9.518;2023-12-14T07:06:49;4.25;;;1.33;;
71116;SDS011;58775;46.992;9.518;2023-12-14T07:08:50;7.00;;;1.92;;
71116;SDS011;58775;46.992;9.518;2023-12-14T07:10:51;6.72;;;2.50;;
71116;SDS011;58775;46.992;9.518;2023-12-14T07:12:52;6.15;;;2.50;;
71116;SDS011;58775;46.992;9.518;2023-12-14T07:14:53;5.95;;;1.95;;
71116;SDS011;58775;46.992;9.518;2023-12-14T07:16:54;8.90;;;2.50;;
71116;SDS011;58775;46.992;9.518;2023-12-14T07:18:54;6.45;;;2.08;;
71116;SDS011;58775;46.992;9.518;2023-12-14T07:20:55;5.20;;;1.70;;
71116;SDS011;58775;46.992;9.518;2023-12-14T07:22:56;5.00;;;1.95;;
71116;SDS011;58775;46.992;9.518;2023-12-14T07:24:57;7.63;;;2.23;;
71116;SDS011;58775;46.992;9.518;2023-12-14T07:26:57;5.90;;;2.17;;
71116;SDS011;58775;46.992;9.518;2023-12-14T07:28:58;5.60;;;1.80;;
71116;SDS011;58775;46.992;9.518;2023-12-14T07:30:59;4.85;;;1.67;;
71116;SDS011;58775;46.992;9.518;2023-12-14T07:33:00;5.50;;;1.83;;
71116;SDS011;58775;46.992;9.518;2023-12-14T07:35:00;3.53;;;1.30;;
71116;SDS011;58775;46.992;9.518;2023-12-14T07:37:01;4.18;;;1.63;;
71116;SDS011;58775;46.992;9.518;2023-12-14T07:39:02;4.95;;;1.58;;
71116;SDS011;58775;46.992;9.518;2023-12-14T07:41:03;5.00;;;1.60;;
71116;SDS011;58775;46.992;9.518;2023-12-14T07:43:04;5.75;;;1.63;;
71116;SDS011;58775;46.992;9.518;2023-12-14T07:45:05;7.20;;;2.30;;
71116;SDS011;58775;46.992;9.518;2023-12-14T07:47:08;5.45;;;1.92;;
71116;SDS011;58775;46.992;9.518;2023-12-14T07:49:09;5.35;;;1.67;;
71116;SDS011;58775;46.992;9.518;2023-12-14T07:51:10;4.88;;;1.83;;
71116;SDS011;58775;46.992;9.518;2023-12-14T07:53:11;6.28;;;2.33;;
71116;SDS011;58775;46.992;9.518;2023-12-14T07:55:12;5.83;;;2.27;;
71116;SDS011;58775;46.992;9.518;2023-12-14T07:57:14;2.83;;;0.98;;
71116;SDS011;58775;46.992;9.518;2023-12-14T07:59:15;3.75;;;1.23;;
71116;SDS011;58775;46.992;9.518;2023-12-14T08:01:15;3.67;;;1.20;;
71116;SDS011;58775;46.992;9.518;2023-12-14T08:03:16;3.05;;;0.80;;
71116;SDS011;58775;46.992;9.518;2023-12-14T08:05:17;2.47;;;0.70;;
71116;SDS011;58775;46.992;9.518;2023-12-14T08:07:18;2.47;;;0.90;;
71116;SDS011;58775;46.992;9.518;2023-12-14T08:09:19;2.35;;;0.60;;
71116;SDS011;58775;46.992;9.518;2023-12-14T08:11:22;2.38;;;0.80;;
71116;SDS011;58775;46.992;9.518;2023-12-14T08:13:23;1.27;;;0.43;;
71116;SDS011;58775;46.992;9.518;2023-12-14T08:15:23;2.20;;;0.60;;
71116;SDS011;58775;46.992;9.518;2023-12-14T08:17:24;1.92;;;0.52;;
71116;SDS011;58775;46.992;9.518;2023-12-14T08:19:25;2.42;;;0.60;;
71116;SDS011;58775;46.992;9.518;2023-12-14T08:21:26;2.22;;;0.60;;
71116;SDS011;58775;46.992;9.518;2023-12-14T08:23:27;1.60;;;0.68;;
71116;SDS011;58775;46.992;9.518;2023-12-14T08:25:30;2.75;;;0.70;;
71116;SDS011;58775;46.992;9.518;2023-12-14T08:27:31;1.83;;;0.40;;
71116;SDS011;58775;46.992;9.518;2023-12-14T08:29:32;1.48;;;0.60;;
71116;SDS011;58775;46.992;9.518;2023-12-14T08:31:33;2.13;;;0.60;;
71116;SDS011;58775;46.992;9.518;2023-12-14T08:33:34;2.47;;;0.70;;
71116;SDS011;58775;46.992;9.518;2023-12-14T08:35:35;2.33;;;0.77;;
71116;SDS011;58775;46.992;9.518;2023-12-14T08:37:36;2.20;;;0.60;;
71116;SDS011;58775;46.992;9.518;2023-12-14T08:39:37;2.67;;;0.57;;
71116;SDS011;58775;46.992;9.518;2023-12-14T08:41:38;1.95;;;0.50;;
71116;SDS011;58775;46.992;9.518;2023-12-14T08:43:39;2.73;;;0.70;;
71116;SDS011;58775;46.992;9.518;2023-12-14T08:45:40;2.22;;;0.80;;
71116;SDS011;58775;46.992;9.518;2023-12-14T08:47:40;4.00;;;1.53;;
71116;SDS011;58775;46.992;9.518;2023-12-14T08:49:41;5.32;;;1.50;;
71116;SDS011;58775;46.992;9.518;2023-12-14T08:51:42;3.35;;;1.13;;
71116;SDS011;58775;46.992;9.518;2023-12-14T08:53:43;3.20;;;0.83;;
71116;SDS011;58775;46.992;9.518;2023-12-14T08:55:44;3.83;;;1.15;;
71116;SDS011;58775;46.992;9.518;2023-12-14T08:57:45;4.07;;;1.45;;
71116;SDS011;58775;46.992;9.518;2023-12-14T08:59:46;5.47;;;1.67;;
71116;SDS011;58775;46.992;9.518;2023-12-14T09:01:46;5.68;;;2.17;;
71116;SDS011;58775;46.992;9.518;2023-12-14T09:03:47;8.17;;;2.07;;
71116;SDS011;58775;46.992;9.518;2023-12-14T09:05:48;5.95;;;1.80;;
71116;SDS011;58775;46.992;9.518;2023-12-14T09:07:49;4.85;;;1.55;;
71116;SDS011;58775;46.992;9.518;2023-12-14T09:09:52;5.67;;;1.67;;
71116;SDS011;58775;46.992;9.518;2023-12-14T09:11:54;5.85;;;1.70;;
71116;SDS011;58775;46.992;9.518;2023-12-14T09:13:55;5.68;;;1.70;;
71116;SDS011;58775;46.992;9.518;2023-12-14T09:15:55;4.17;;;1.43;;
71116;SDS011;58775;46.992;9.518;2023-12-14T09:17:56;4.63;;;1.45;;
71116;SDS011;58775;46.992;9.518;2023-12-14T09:19:57;5.90;;;1.40;;
71116;SDS011;58775;46.992;9.518;2023-12-14T09:21:58;3.35;;;1.30;;
71116;SDS011;58775;46.992;9.518;2023-12-14T09:23:59;4.40;;;1.48;;
71116;SDS011;58775;46.992;9.518;2023-12-14T09:26:00;4.20;;;1.48;;
71116;SDS011;58775;46.992;9.518;2023-12-14T09:28:01;4.77;;;1.53;;
71116;SDS011;58775;46.992;9.518;2023-12-14T09:30:02;3.63;;;1.40;;
71116;SDS011;58775;46.992;9.518;2023-12-14T09:32:03;5.20;;;1.40;;
71116;SDS011;58775;46.992;9.518;2023-12-14T09:34:05;3.23;;;1.37;;
71116;SDS011;58775;46.992;9.518;2023-12-14T09:36:06;5.15;;;1.60;;
71116;SDS011;58775;46.992;9.518;2023-12-14T09:38:07;5.72;;;1.90;;
71116;SDS011;58775;46.992;9.518;2023-12-14T09:40:08;5.10;;;1.60;;
71116;SDS011;58775;46.992;9.518;2023-12-14T09:42:09;7.03;;;1.80;;
71116;SDS011;58775;46.992;9.518;2023-12-14T09:44:10;3.83;;;1.50;;
71116;SDS011;58775;46.992;9.518;2023-12-14T09:46:11;5.75;;;1.70;;
71116;SDS011;58775;46.992;9.518;2023-12-14T09:48:13;5.77;;;1.90;;
71116;SDS011;58775;46.992;9.518;2023-12-14T09:50:16;5.72;;;1.95;;
71116;SDS011;58775;46.992;9.518;2023-12-14T09:52:17;5.63;;;1.80;;
71116;SDS011;58775;46.992;9.518;2023-12-14T09:54:18;5.47;;;1.83;;
71116;SDS011;58775;46.992;9.518;2023-12-14T09:56:18;5.30;;;1.85;;
71116;SDS011;58775;46.992;9.518;2023-12-14T09:58:19;5.43;;;1.83;;
71116;SDS011;58775;46.992;9.518;2023-12-14T10:00:36;10.70;;;2.40;;
71116;SDS011;58775;46.992;9.518;2023-12-14T10:02:41;8.40;;;2.05;;
71116;SDS011;58775;46.992;9.518;2023-12-14T10:04:42;5.47;;;1.77;;
71116;SDS011;58775;46.992;9.518;2023-12-14T10:06:45;5.13;;;1.23;;
71116;SDS011;58775;46.992;9.518;2023-12-14T10:08:53;3.55;;;1.02;;
71116;SDS011;58775;46.992;9.518;2023-12-14T10:10:56;7.03;;;1.20;;
71116;SDS011;58775;46.992;9.518;2023-12-14T10:12:57;4.13;;;0.90;;
71116;SDS011;58775;46.992;9.518;2023-12-14T10:15:00;4.27;;;1.10;;
71116;SDS011;58775;46.992;9.518;2023-12-14T10:17:16;4.32;;;1.20;;
71116;SDS011;58775;46.992;9.518;2023-12-14T10:19:18;3.15;;;1.13;;
71116;SDS011;58775;46.992;9.518;2023-12-14T10:21:19;3.27;;;0.90;;
71116;SDS011;58775;46.992;9.518;2023-12-14T10:23:21;2.47;;;1.02;;
71116;SDS011;58775;46.992;9.518;2023-12-14T10:25:22;2.65;;;0.98;;
71116;SDS011;58775;46.992;9.518;2023-12-14T10:27:22;2.70;;;1.20;;
71116;SDS011;58775;46.992;9.518;2023-12-14T10:29:23;4.05;;;1.20;;
71116;SDS011;58775;46.992;9.518;2023-12-14T10:31:24;4.85;;;1.30;;
71116;SDS011;58775;46.992;9.518;2023-12-14T10:33:26;3.70;;;1.17;;
71116;SDS011;58775;46.992;9.518;2023-12-14T10:35:27;3.13;;;0.90;;
71116;SDS011;58775;46.992;9.518;2023-12-14T10:37:27;2.38;;;1.00;;
71116;SDS011;58775;46.992;9.518;2023-12-14T10:39:31;3.03;;;0.98;;
71116;SDS011;58775;46.992;9.518;2023-12-14T10:41:33;2.70;;;0.80;;
71116;SDS011;58775;46.992;9.518;2023-12-14T10:43:35;1.88;;;0.70;;
71116;SDS011;58775;46.992;9.518;2023-12-14T10:45:37;1.92;;;0.60;;
71116;SDS011;58775;46.992;9.518;2023-12-14T10:47:39;1.58;;;0.63;;
71116;SDS011;58775;46.992;9.518;2023-12-14T10:49:45;4.50;;;0.80;;
71116;SDS011;58775;46.992;9.518;2023-12-14T10:51:54;3.30;;;0.70;;
71116;SDS011;58775;46.992;9.518;2023-12-14T10:53:57;3.50;;;0.77;;
71116;SDS011;58775;46.992;9.518;2023-12-14T10:55:59;4.28;;;0.90;;
71116;SDS011;58775;46.992;9.518;2023-12-14T10:58:02;3.13;;;0.73;;
71116;SDS011;58775;46.992;9.518;2023-12-14T11:00:04;2.50;;;0.90;;
71116;SDS011;58775;46.992;9.518;2023-12-14T11:02:09;3.27;;;1.07;;
71116;SDS011;58775;46.992;9.518;2023-12-14T11:04:10;2.50;;;0.70;;
71116;SDS011;58775;46.992;9.518;2023-12-14T11:06:25;2.45;;;0.63;;
71116;SDS011;58775;46.992;9.518;2023-12-14T11:08:34;2.35;;;0.55;;
71116;SDS011;58775;46.992;9.518;2023-12-14T11:10:38;2.10;;;0.60;;
71116;SDS011;58775;46.992;9.518;2023-12-14T11:13:24;1.27;;;0.60;;
71116;SDS011;58775;46.992;9.518;2023-12-14T11:15:02;2.35;;;0.63;;
71116;SDS011;58775;46.992;9.518;2023-12-14T11:17:05;3.22;;;0.77;;
71116;SDS011;58775;46.992;9.518;2023-12-14T11:21:25;2.13;;;0.65;;
71116;SDS011;58775;46.992;9.518;2023-12-14T11:23:27;2.33;;;0.80;;
71116;SDS011;58775;46.992;9.518;2023-12-14T11:25:31;3.47;;;0.90;;
71116;SDS011;58775;46.992;9.518;2023-12-14T11:27:31;2.38;;;0.80;;
71116;SDS011;58775;46.992;9.518;2023-12-14T11:29:35;2.75;;;0.80;;
71116;SDS011;58775;46.992;9.518;2023-12-14T11:31:37;2.25;;;0.90;;
71116;SDS011;58775;46.992;9.518;2023-12-14T11:33:40;3.85;;;0.90;;
71116;SDS011;58775;46.992;9.518;2023-12-14T11:35:41;2.72;;;0.80;;
71116;SDS011;58775;46.992;9.518;2023-12-14T11:37:42;3.65;;;0.80;;
71116;SDS011;58775;46.992;9.518;2023-12-14T11:39:43;2.15;;;0.80;;
71116;SDS011;58775;46.992;9.518;2023-12-14T11:41:58;5.07;;;1.30;;
71116;SDS011;58775;46.992;9.518;2023-12-14T11:44:02;4.40;;;0.80;;
71116;SDS011;58775;46.992;9.518;2023-12-14T11:46:03;3.07;;;0.90;;
71116;SDS011;58775;46.992;9.518;2023-12-14T11:48:08;3.65;;;1.00;;
71116;SDS011;58775;46.992;9.518;2023-12-14T11:50:11;2.55;;;0.85;;
71116;SDS011;58775;46.992;9.518;2023-12-14T11:52:12;3.63;;;1.20;;
71116;SDS011;58775;46.992;9.518;2023-12-14T11:54:13;3.50;;;0.98;;
71116;SDS011;58775;46.992;9.518;2023-12-14T11:56:14;2.85;;;0.63;;
71116;SDS011;58775;46.992;9.518;2023-12-14T11:58:17;2.85;;;0.88;;
71116;SDS011;58775;46.992;9.518;2023-12-14T12:00:18;3.63;;;1.10;;
71116;SDS011;58775;46.992;9.518;2023-12-14T12:02:24;2.30;;;0.60;;
71116;SDS011;58775;46.992;9.518;2023-12-14T12:04:26;2.10;;;0.60;;
71116;SDS011;58775;46.992;9.518;2023-12-14T12:06:27;3.58;;;0.90;;
71116;SDS011;58775;46.992;9.518;2023-12-14T12:08:28;5.53;;;1.00;;
71116;SDS011;58775;46.992;9.518;2023-12-14T12:10:29;2.45;;;0.70;;
71116;SDS011;58775;46.992;9.518;2023-12-14T12:12:30;3.50;;;0.97;;